Minna, Minna Airport (DNMN)

NameMinna Airport
CityMinna
CountryNigeria
ICAODNMN
IATAMXJ
Altitude254 m
CoordinatesGoogle Map
Live Air TrafficLiveATC.net
METARDNMN 162200Z 14009KT CAVOK 31/22 Q1007
2018-04-16 22:00:00 Wind: Southeast (140°) 4.63 m/s - Visibility: > 10000 m - Weather: CAVOK - Temperature: 31 °C - Dew point: 22 °C - Humidity: 58.7% - Pressure: 1007 hPa

Sorry, no flights used the airport in this database.